Time;durP1;ratioP1;P1;durP2;ratioP2;P2;SDS_P1;SDS_P2;PMS_P1;PMS_P2;Temp;Humidity;BMP_temperature;BMP_pressure;BME280_temperature;BME280_humidity;BME280_pressure;Samples;Min_cycle;Max_cycle;Signal;HPM_P1;HPM_P2
2023/03/13 00:01:10;;;;;;;;;;;12.50;99.90;;;;;;5141971;27;19907;-65
2023/03/13 00:03:36;;;;;;;;;;;12.50;99.90;;;;;;5141981;27;19907;-65
2023/03/13 00:06:01;;;;;;;;;;;12.60;99.90;;;;;;5141607;27;19911;-65
2023/03/13 00:08:30;;;;;;;;;;;12.60;99.90;;;;;;5141555;27;19915;-65
2023/03/13 00:10:55;;;;;;;;;;;12.60;99.90;;;;;;5141828;27;19907;-65
2023/03/13 00:13:21;;;;;;;;;;;12.60;99.90;;;;;;5141360;27;20044;-65
2023/03/13 00:15:46;;;;;;;;;;;12.80;99.90;;;;;;5141993;27;19907;-65
2023/03/13 00:18:12;;;;;;;;;;;12.70;99.90;;;;;;5141808;27;19914;-65
2023/03/13 00:20:38;;;;;;;;;;;12.70;99.90;;;;;;5141705;27;19908;-65
2023/03/13 00:23:03;;;;;;;;;;;12.70;99.90;;;;;;5141580;27;20382;-65
2023/03/13 00:25:29;;;;;;;;;;;12.70;99.90;;;;;;5140826;27;19911;-65
2023/03/13 00:27:55;;;;;;;;;;;12.70;99.90;;;;;;5141202;27;19907;-64
2023/03/13 00:30:20;;;;;;;;;;;12.70;99.90;;;;;;5141413;27;19942;-65
2023/03/13 00:32:46;;;;;;;;;;;12.60;99.90;;;;;;5141851;27;19907;-65
2023/03/13 00:35:12;;;;;;;;;;;12.60;99.90;;;;;;5141152;27;19907;-64
2023/03/13 00:37:38;;;;;;;;;;;12.50;99.90;;;;;;5141392;27;19907;-64
2023/03/13 00:40:04;;;;;;;;;;;12.40;99.90;;;;;;5141016;27;19972;-65
2023/03/13 00:42:30;;;;;;;;;;;12.40;99.90;;;;;;5141589;27;19911;-64
2023/03/13 00:44:56;;;;;;;;;;;12.30;99.90;;;;;;5141021;27;19918;-64
2023/03/13 00:47:21;;;;;;;;;;;12.20;99.90;;;;;;5141271;27;20378;-64
2023/03/13 00:49:47;;;;;;;;;;;12.40;99.90;;;;;;5141148;27;20006;-64
2023/03/13 00:52:12;;;;;;;;;;;12.40;99.90;;;;;;5141139;27;20358;-64
2023/03/13 00:54:38;;;;;;;;;;;12.30;99.90;;;;;;5141232;27;19914;-66
2023/03/13 00:57:04;;;;;;;;;;;12.30;99.90;;;;;;5140786;27;19915;-66
2023/03/13 00:59:29;;;;;;;;;;;12.20;99.90;;;;;;5141164;27;19907;-67
2023/03/13 01:01:55;;;;;;;;;;;12.20;99.90;;;;;;5140977;27;19907;-67
2023/03/13 01:04:20;;;;;;;;;;;12.10;99.90;;;;;;5140998;27;20381;-67
2023/03/13 01:06:46;;;;;;;;;;;12.20;99.90;;;;;;5140750;27;19907;-67
2023/03/13 01:09:13;;;;;;;;;;;12.10;99.90;;;;;;5140962;27;20345;-67
2023/03/13 01:11:39;;;;;;;;;;;12.20;99.90;;;;;;5140638;27;19914;-67
2023/03/13 01:14:06;;;;;;;;;;;12.10;99.90;;;;;;5140521;27;20365;-67
2023/03/13 01:16:33;;;;;;;;;;;12.20;99.90;;;;;;5140672;27;19967;-67
2023/03/13 01:18:59;;;;;;;;;;;12.20;99.90;;;;;;5140373;27;19914;-67
2023/03/13 01:21:25;;;;;;;;;;;12.10;99.90;;;;;;5140593;27;19907;-66
2023/03/13 01:23:52;;;;;;;;;;;12.00;99.90;;;;;;5140042;27;20382;-67
2023/03/13 01:26:18;;;;;;;;;;;12.10;99.90;;;;;;5140682;27;19908;-66
2023/03/13 01:28:44;;;;;;;;;;;12.20;99.90;;;;;;5140447;27;19907;-67
2023/03/13 01:31:13;;;;;;;;;;;12.10;99.90;;;;;;5140187;27;20392;-67
2023/03/13 01:33:39;;;;;;;;;;;12.20;99.90;;;;;;5140132;27;19915;-67
2023/03/13 01:36:05;;;;;;;;;;;12.20;99.90;;;;;;5140136;27;19976;-67
2023/03/13 01:38:31;;;;;;;;;;;12.20;99.90;;;;;;5140064;27;19915;-67
2023/03/13 01:40:56;;;;;;;;;;;12.20;99.90;;;;;;5140005;27;19907;-67
2023/03/13 01:43:23;;;;;;;;;;;12.20;99.90;;;;;;5140031;27;20357;-67
2023/03/13 01:45:48;;;;;;;;;;;12.30;99.90;;;;;;5140037;27;19958;-67
2023/03/13 01:48:14;;;;;;;;;;;12.20;99.90;;;;;;5140010;27;19911;-67
2023/03/13 01:50:40;;;;;;;;;;;12.20;99.90;;;;;;5139961;27;20353;-66
2023/03/13 01:53:05;;;;;;;;;;;12.20;99.90;;;;;;5139822;27;19908;-67
2023/03/13 01:55:32;;;;;;;;;;;12.20;99.90;;;;;;5139685;27;19915;-67
2023/03/13 01:57:58;;;;;;;;;;;12.20;99.90;;;;;;5139739;27;19908;-67
2023/03/13 02:00:26;;;;;;;;;;;12.20;99.90;;;;;;5140103;27;19907;-67
2023/03/13 02:02:54;;;;;;;;;;;12.20;99.90;;;;;;5139557;27;19914;-67
2023/03/13 02:05:20;;;;;;;;;;;12.20;99.90;;;;;;5139465;27;19912;-67
2023/03/13 02:07:52;;;;;;;;;;;12.20;99.90;;;;;;5139642;27;19914;-67
2023/03/13 02:10:18;;;;;;;;;;;12.30;99.90;;;;;;5139631;27;19907;-67
2023/03/13 02:12:44;;;;;;;;;;;12.20;99.90;;;;;;5139218;27;19918;-67
2023/03/13 02:15:17;;;;;;;;;;;12.40;99.90;;;;;;5139279;27;20316;-67
2023/03/13 02:17:44;;;;;;;;;;;12.30;99.90;;;;;;5139416;27;19908;-67
2023/03/13 02:20:10;;;;;;;;;;;12.20;99.90;;;;;;5139510;27;19907;-67
2023/03/13 02:22:45;;;;;;;;;;;12.30;99.90;;;;;;5139129;27;19932;-67
2023/03/13 02:25:23;;;;;;;;;;;12.30;99.90;;;;;;5139186;27;19918;-67
2023/03/13 02:28:09;;;;;;;;;;;12.30;99.90;;;;;;5139466;27;20278;-66
2023/03/13 02:30:36;;;;;;;;;;;12.30;99.90;;;;;;5139183;27;20366;-67
2023/03/13 02:33:02;;;;;;;;;;;12.30;99.90;;;;;;5139133;27;19908;-67
2023/03/13 02:35:28;;;;;;;;;;;12.30;99.90;;;;;;5138885;27;19908;-66
2023/03/13 02:37:56;;;;;;;;;;;12.30;99.90;;;;;;5138968;27;19969;-67
2023/03/13 02:40:36;;;;;;;;;;;12.30;99.90;;;;;;5139523;27;20258;-67
2023/03/13 02:43:04;;;;;;;;;;;12.30;99.90;;;;;;5139065;27;19907;-67
2023/03/13 02:45:29;;;;;;;;;;;12.30;99.90;;;;;;5139455;28;19911;-67
2023/03/13 02:47:55;;;;;;;;;;;12.30;99.90;;;;;;5138339;27;20002;-66
2023/03/13 02:50:21;;;;;;;;;;;12.30;99.90;;;;;;5139105;28;19911;-67
2023/03/13 02:52:55;;;;;;;;;;;12.20;99.90;;;;;;5138908;28;19915;-66
2023/03/13 02:55:26;;;;;;;;;;;12.30;99.90;;;;;;5139225;28;19914;-67
2023/03/13 02:57:52;;;;;;;;;;;12.20;99.90;;;;;;5139297;28;19907;-67
2023/03/13 03:00:18;;;;;;;;;;;12.20;99.90;;;;;;5138841;28;19913;-67
2023/03/13 03:02:43;;;;;;;;;;;12.30;99.90;;;;;;5138974;28;20446;-67
2023/03/13 03:05:10;;;;;;;;;;;12.20;99.90;;;;;;5138765;28;20028;-66
2023/03/13 03:07:35;;;;;;;;;;;12.20;99.90;;;;;;5138939;28;19962;-66
2023/03/13 03:10:01;;;;;;;;;;;12.20;99.90;;;;;;5138981;28;19941;-67
2023/03/13 03:12:26;;;;;;;;;;;12.10;99.90;;;;;;5138665;28;20467;-66
2023/03/13 03:14:52;;;;;;;;;;;12.10;99.90;;;;;;5138522;28;19987;-66
2023/03/13 03:17:18;;;;;;;;;;;12.20;99.90;;;;;;5138977;28;19907;-66
2023/03/13 03:19:43;;;;;;;;;;;12.20;99.90;;;;;;5138596;28;19908;-66
2023/03/13 03:22:09;;;;;;;;;;;12.20;99.90;;;;;;5138742;28;19914;-66
2023/03/13 03:24:35;;;;;;;;;;;12.20;99.90;;;;;;5138223;28;19926;-66
2023/03/13 03:27:00;;;;;;;;;;;12.30;99.90;;;;;;5138672;28;20274;-66
2023/03/13 03:29:26;;;;;;;;;;;12.20;99.90;;;;;;5138595;28;20243;-66
2023/03/13 03:31:52;;;;;;;;;;;12.00;99.90;;;;;;5138945;28;19908;-66
2023/03/13 03:34:18;;;;;;;;;;;12.20;99.90;;;;;;5138542;28;19915;-66
2023/03/13 03:36:43;;;;;;;;;;;12.20;99.90;;;;;;5138871;28;19973;-66
2023/03/13 03:39:09;;;;;;;;;;;12.10;99.90;;;;;;5138964;28;19912;-66
2023/03/13 03:41:36;;;;;;;;;;;12.20;99.90;;;;;;5138475;28;20027;-66
2023/03/13 03:44:02;;;;;;;;;;;12.20;99.90;;;;;;5138575;28;19914;-66
2023/03/13 03:46:27;;;;;;;;;;;12.20;99.90;;;;;;5138428;28;19914;-66
2023/03/13 03:48:53;;;;;;;;;;;12.20;99.90;;;;;;5138349;28;19945;-66
2023/03/13 03:51:19;;;;;;;;;;;12.30;99.90;;;;;;5138574;28;19907;-66
2023/03/13 03:53:45;;;;;;;;;;;12.30;99.90;;;;;;5138824;28;19917;-66
2023/03/13 03:56:10;;;;;;;;;;;12.30;99.90;;;;;;5138347;28;19907;-66
2023/03/13 03:58:36;;;;;;;;;;;12.30;99.90;;;;;;5138820;27;19956;-66
2023/03/13 04:01:02;;;;;;;;;;;12.30;99.90;;;;;;5140755;27;20326;-66
2023/03/13 04:03:27;;;;;;;;;;;12.20;99.90;;;;;;5142200;27;19969;-66
2023/03/13 04:05:53;;;;;;;;;;;12.00;99.90;;;;;;5141982;27;20401;-66
2023/03/13 04:08:19;;;;;;;;;;;12.30;99.90;;;;;;5142340;27;19908;-66
2023/03/13 04:10:44;;;;;;;;;;;12.20;99.90;;;;;;5141855;27;20440;-66
2023/03/13 04:13:10;;;;;;;;;;;12.30;99.90;;;;;;5142059;27;19908;-66
2023/03/13 04:15:37;;;;;;;;;;;12.30;99.90;;;;;;5141744;27;19928;-66
2023/03/13 04:18:02;;;;;;;;;;;12.30;99.90;;;;;;5141913;27;19907;-66
2023/03/13 04:20:28;;;;;;;;;;;12.30;99.90;;;;;;5141785;27;19913;-66
2023/03/13 04:22:54;;;;;;;;;;;12.40;99.90;;;;;;5141237;27;19947;-66
2023/03/13 04:25:19;;;;;;;;;;;12.30;99.90;;;;;;5141335;27;19915;-66
2023/03/13 04:27:45;;;;;;;;;;;12.30;99.90;;;;;;5141601;27;20324;-66
2023/03/13 04:30:11;;;;;;;;;;;12.30;99.90;;;;;;5141852;27;20424;-66
2023/03/13 04:32:37;;;;;;;;;;;12.30;99.90;;;;;;5141617;27;19998;-66
2023/03/13 04:35:02;;;;;;;;;;;12.20;99.90;;;;;;5141247;27;19949;-66
2023/03/13 04:37:28;;;;;;;;;;;12.20;99.90;;;;;;5141773;27;19907;-66
2023/03/13 04:39:54;;;;;;;;;;;12.20;99.90;;;;;;5141261;27;20369;-66
2023/03/13 04:42:19;;;;;;;;;;;12.30;99.90;;;;;;5141449;27;19956;-66
2023/03/13 04:44:45;;;;;;;;;;;12.30;99.90;;;;;;5140994;27;19912;-66
2023/03/13 04:47:10;;;;;;;;;;;12.30;99.90;;;;;;5141318;27;19907;-66
2023/03/13 04:49:36;;;;;;;;;;;12.30;99.90;;;;;;5141195;27;20389;-66
2023/03/13 04:52:01;;;;;;;;;;;12.30;99.90;;;;;;5140776;27;19957;-66
2023/03/13 04:54:27;;;;;;;;;;;12.30;99.90;;;;;;5140924;27;19946;-66
2023/03/13 04:56:53;;;;;;;;;;;12.30;99.90;;;;;;5141220;27;19975;-66
2023/03/13 04:59:18;;;;;;;;;;;12.20;99.90;;;;;;5140966;27;19908;-66
2023/03/13 05:01:44;;;;;;;;;;;12.30;99.90;;;;;;5141194;27;19911;-66
2023/03/13 05:04:10;;;;;;;;;;;12.30;99.90;;;;;;5140685;27;19998;-66
2023/03/13 05:06:36;;;;;;;;;;;12.30;99.90;;;;;;5140712;27;20074;-66
2023/03/13 05:09:02;;;;;;;;;;;12.30;99.90;;;;;;5140805;27;19943;-66
2023/03/13 05:11:28;;;;;;;;;;;12.20;99.90;;;;;;5140032;27;19916;-66
2023/03/13 05:13:53;;;;;;;;;;;12.30;99.90;;;;;;5140751;27;19915;-66
2023/03/13 05:16:19;;;;;;;;;;;12.30;99.90;;;;;;5140749;27;19960;-65
2023/03/13 05:18:45;;;;;;;;;;;12.20;99.90;;;;;;5140465;27;19908;-66
2023/03/13 05:21:10;;;;;;;;;;;12.20;99.90;;;;;;5140707;27;19930;-66
2023/03/13 05:23:36;;;;;;;;;;;12.20;99.90;;;;;;5140176;27;19926;-66
2023/03/13 05:26:02;;;;;;;;;;;12.30;99.90;;;;;;5140693;27;19915;-66
2023/03/13 05:28:27;;;;;;;;;;;12.30;99.90;;;;;;5140324;27;20319;-66
2023/03/13 05:30:53;;;;;;;;;;;12.30;99.90;;;;;;5140490;27;19908;-66
2023/03/13 05:33:19;;;;;;;;;;;12.20;99.90;;;;;;5140233;27;19914;-66
2023/03/13 05:35:45;;;;;;;;;;;12.20;99.90;;;;;;5140326;27;19911;-66
2023/03/13 05:38:11;;;;;;;;;;;12.20;99.90;;;;;;5140538;27;19911;-66
2023/03/13 05:40:36;;;;;;;;;;;12.40;99.90;;;;;;5139960;27;19928;-65
2023/03/13 05:43:02;;;;;;;;;;;12.20;99.90;;;;;;5139949;27;19908;-65
2023/03/13 05:45:28;;;;;;;;;;;12.10;99.90;;;;;;5139867;27;19912;-66
2023/03/13 05:47:53;;;;;;;;;;;12.10;99.90;;;;;;5140396;27;19960;-66
2023/03/13 05:50:19;;;;;;;;;;;12.10;99.90;;;;;;5140003;27;19907;-66
2023/03/13 05:52:45;;;;;;;;;;;12.00;99.90;;;;;;5140015;27;19911;-66
2023/03/13 05:55:10;;;;;;;;;;;12.00;99.90;;;;;;5139685;27;20002;-66
2023/03/13 05:57:36;;;;;;;;;;;11.90;99.90;;;;;;5139885;27;19914;-65
2023/03/13 06:00:02;;;;;;;;;;;11.70;99.90;;;;;;5139658;27;19923;-65
2023/03/13 06:02:28;;;;;;;;;;;11.90;99.90;;;;;;5139449;27;20324;-65
2023/03/13 06:04:54;;;;;;;;;;;11.70;99.90;;;;;;5139481;27;19918;-65
2023/03/13 06:07:19;;;;;;;;;;;11.70;99.90;;;;;;5139796;27;19951;-65
2023/03/13 06:09:45;;;;;;;;;;;11.70;99.90;;;;;;5139690;27;19908;-65
2023/03/13 06:12:11;;;;;;;;;;;11.70;99.90;;;;;;5139715;27;19939;-65
2023/03/13 06:14:39;;;;;;;;;;;11.60;99.90;;;;;;5139410;27;19915;-65
2023/03/13 06:17:05;;;;;;;;;;;11.60;99.90;;;;;;5139186;27;20298;-65
2023/03/13 06:19:31;;;;;;;;;;;11.50;99.90;;;;;;5139729;27;19907;-65
2023/03/13 06:21:56;;;;;;;;;;;11.50;99.90;;;;;;5139185;27;19956;-66
2023/03/13 06:24:22;;;;;;;;;;;11.50;99.90;;;;;;5138324;27;19919;-66
2023/03/13 06:26:48;;;;;;;;;;;11.50;99.90;;;;;;5139406;27;19915;-66
2023/03/13 06:29:14;;;;;;;;;;;11.50;99.90;;;;;;5139372;27;19930;-66
2023/03/13 06:31:40;;;;;;;;;;;11.50;99.90;;;;;;5139368;27;19908;-66
2023/03/13 06:34:07;;;;;;;;;;;11.50;99.90;;;;;;5139124;27;19907;-66
2023/03/13 06:36:33;;;;;;;;;;;11.50;99.90;;;;;;5139036;27;19907;-66
2023/03/13 06:38:58;;;;;;;;;;;11.50;99.90;;;;;;5139323;27;20239;-66
2023/03/13 06:41:24;;;;;;;;;;;11.50;99.90;;;;;;5139033;27;19918;-65
2023/03/13 06:43:49;;;;;;;;;;;11.50;99.90;;;;;;5139010;27;19956;-65
2023/03/13 06:46:16;;;;;;;;;;;11.60;99.90;;;;;;5138677;27;19912;-65
2023/03/13 06:48:43;;;;;;;;;;;11.60;99.90;;;;;;5138861;28;19907;-65
2023/03/13 06:51:12;;;;;;;;;;;11.60;99.90;;;;;;5139014;28;19908;-65
2023/03/13 06:53:37;;;;;;;;;;;11.60;99.90;;;;;;5138927;28;19908;-65
2023/03/13 06:56:03;;;;;;;;;;;11.60;99.90;;;;;;5138617;28;19907;-65
2023/03/13 06:58:29;;;;;;;;;;;11.60;99.90;;;;;;5138733;28;19908;-65
2023/03/13 07:00:54;;;;;;;;;;;11.60;99.90;;;;;;5139134;28;19918;-66
2023/03/13 07:03:20;;;;;;;;;;;11.60;99.90;;;;;;5138969;28;19907;-65
2023/03/13 07:05:46;;;;;;;;;;;11.60;99.90;;;;;;5138670;28;20018;-65
2023/03/13 07:08:11;;;;;;;;;;;11.60;99.90;;;;;;5138875;28;20456;-65
2023/03/13 07:10:37;;;;;;;;;;;11.60;99.90;;;;;;5138894;28;19959;-65
2023/03/13 07:13:02;;;;;;;;;;;11.60;99.90;;;;;;5138870;28;19911;-65
2023/03/13 07:15:28;;;;;;;;;;;11.60;99.90;;;;;;5138931;28;19952;-65
2023/03/13 07:17:55;;;;;;;;;;;11.60;99.90;;;;;;5138599;28;19914;-65
2023/03/13 07:20:21;;;;;;;;;;;11.60;99.90;;;;;;5138533;28;19907;-65
2023/03/13 07:22:50;;;;;;;;;;;11.60;99.90;;;;;;5138598;28;19940;-65
2023/03/13 07:25:15;;;;;;;;;;;11.60;99.90;;;;;;5138658;28;19912;-66
2023/03/13 07:27:41;;;;;;;;;;;11.70;99.90;;;;;;5138742;28;19911;-66
2023/03/13 07:30:07;;;;;;;;;;;11.70;99.90;;;;;;5138737;28;19908;-65
2023/03/13 07:32:32;;;;;;;;;;;11.80;99.90;;;;;;5138655;28;19974;-65
2023/03/13 07:34:58;;;;;;;;;;;11.80;99.90;;;;;;5140976;27;19908;-65
2023/03/13 07:37:24;;;;;;;;;;;11.80;99.90;;;;;;5142825;27;19939;-65
2023/03/13 07:39:49;;;;;;;;;;;11.80;99.90;;;;;;5142410;27;19907;-65
2023/03/13 07:42:15;;;;;;;;;;;11.80;99.90;;;;;;5142467;27;19915;-65
2023/03/13 07:44:40;;;;;;;;;;;11.80;99.90;;;;;;5142193;27;19911;-65
2023/03/13 07:47:06;;;;;;;;;;;11.80;99.90;;;;;;5142122;27;19952;-65
2023/03/13 07:49:32;;;;;;;;;;;11.80;99.90;;;;;;5142595;27;19908;-66
2023/03/13 07:51:58;;;;;;;;;;;11.90;99.90;;;;;;5141980;27;19930;-65
2023/03/13 07:54:23;;;;;;;;;;;11.90;99.90;;;;;;5142273;27;19907;-65
2023/03/13 07:56:49;;;;;;;;;;;11.90;99.90;;;;;;5142220;27;19907;-65
2023/03/13 07:59:15;;;;;;;;;;;12.00;99.90;;;;;;5142165;27;19960;-65
2023/03/13 08:01:41;;;;;;;;;;;12.00;99.90;;;;;;5141910;27;19974;-65
2023/03/13 08:04:08;;;;;;;;;;;12.00;99.90;;;;;;5141720;27;19996;-65
2023/03/13 08:06:35;;;;;;;;;;;12.00;99.90;;;;;;5141886;27;20295;-65
2023/03/13 08:09:01;;;;;;;;;;;12.00;99.90;;;;;;5141877;27;19907;-66
2023/03/13 08:11:27;;;;;;;;;;;12.10;99.90;;;;;;5141889;27;19915;-65
2023/03/13 08:13:53;;;;;;;;;;;12.00;99.90;;;;;;5142008;27;19930;-65
2023/03/13 08:16:18;;;;;;;;;;;12.00;99.90;;;;;;5141860;27;19930;-65
2023/03/13 08:18:45;;;;;;;;;;;12.10;99.90;;;;;;5141512;27;19949;-65
2023/03/13 08:21:15;;;;;;;;;;;12.10;99.90;;;;;;5141574;27;19914;-65
2023/03/13 08:23:41;;;;;;;;;;;12.20;99.90;;;;;;5141247;27;20297;-65
2023/03/13 08:26:14;;;;;;;;;;;12.40;99.90;;;;;;5141800;27;19912;-65
2023/03/13 08:28:40;;;;;;;;;;;12.50;99.90;;;;;;5122766;27;19914;-65
2023/03/13 08:31:13;;;;;;;;;;;12.50;99.90;;;;;;5141294;27;19907;-65
2023/03/13 08:33:39;;;;;;;;;;;12.50;99.90;;;;;;5141400;27;19907;-65
2023/03/13 08:36:10;;;;;;;;;;;12.40;99.90;;;;;;5141380;27;20002;-65
2023/03/13 08:38:36;;;;;;;;;;;12.40;99.90;;;;;;5141350;27;19917;-65
2023/03/13 08:41:02;;;;;;;;;;;12.50;99.90;;;;;;5140902;27;19956;-65
2023/03/13 08:43:27;;;;;;;;;;;12.50;99.90;;;;;;5140868;27;19907;-65
2023/03/13 08:45:54;;;;;;;;;;;12.40;99.90;;;;;;5140165;27;19912;-65
2023/03/13 08:48:19;;;;;;;;;;;12.40;99.90;;;;;;5141156;27;19908;-65
2023/03/13 08:50:45;;;;;;;;;;;12.50;99.90;;;;;;5141058;27;19907;-65
2023/03/13 08:53:10;;;;;;;;;;;12.40;99.90;;;;;;5141083;27;19988;-65
2023/03/13 08:55:36;;;;;;;;;;;12.40;99.90;;;;;;5141074;27;20365;-65
2023/03/13 08:58:02;;;;;;;;;;;12.50;99.90;;;;;;5140778;27;19907;-65
2023/03/13 09:00:27;;;;;;;;;;;12.50;99.90;;;;;;5141073;27;20274;-65
2023/03/13 09:02:55;;;;;;;;;;;12.50;99.90;;;;;;5141028;27;19998;-65
2023/03/13 09:05:21;;;;;;;;;;;12.50;99.90;;;;;;5140854;27;20366;-65
2023/03/13 09:07:47;;;;;;;;;;;12.50;99.90;;;;;;5140577;27;19908;-65
2023/03/13 09:10:12;;;;;;;;;;;12.70;99.90;;;;;;5140598;27;19908;-65
2023/03/13 09:12:38;;;;;;;;;;;13.10;99.90;;;;;;5141355;27;19907;-65
2023/03/13 09:15:04;;;;;;;;;;;13.40;99.90;;;;;;5140208;27;19908;-65
2023/03/13 09:17:29;;;;;;;;;;;13.40;99.90;;;;;;5140575;27;19908;-65
2023/03/13 09:19:55;;;;;;;;;;;13.30;99.90;;;;;;5140112;27;19997;-65
2023/03/13 09:22:21;;;;;;;;;;;13.50;99.90;;;;;;5140456;27;19954;-65
2023/03/13 09:24:46;;;;;;;;;;;13.20;99.90;;;;;;5139846;27;19919;-65
2023/03/13 09:27:12;;;;;;;;;;;13.20;99.90;;;;;;5140134;27;19908;-65
2023/03/13 09:29:40;;;;;;;;;;;13.30;99.90;;;;;;5140300;27;19911;-65
2023/03/13 09:32:06;;;;;;;;;;;13.20;99.90;;;;;;5140224;27;19994;-65
2023/03/13 09:34:31;;;;;;;;;;;13.30;99.90;;;;;;5140067;27;19991;-65
2023/03/13 09:36:57;;;;;;;;;;;13.30;99.90;;;;;;5140289;27;19907;-65
2023/03/13 09:39:22;;;;;;;;;;;13.10;99.90;;;;;;5139979;27;19911;-65
2023/03/13 09:41:54;;;;;;;;;;;13.20;99.90;;;;;;5139759;27;19914;-65
2023/03/13 09:44:24;;;;;;;;;;;13.10;99.90;;;;;;5139435;27;20414;-65
2023/03/13 09:46:49;;;;;;;;;;;13.20;99.90;;;;;;5140087;27;19914;-65
2023/03/13 09:49:35;;;;;;;;;;;13.20;99.90;;;;;;5139947;27;19907;-65
2023/03/13 09:52:19;;;;;;;;;;;13.10;99.90;;;;;;5139568;27;20267;-65
2023/03/13 09:54:56;;;;;;;;;;;13.30;99.90;;;;;;5139921;27;19918;-65
2023/03/13 09:57:25;;;;;;;;;;;13.70;99.90;;;;;;5139949;27;19907;-65
2023/03/13 10:00:06;;;;;;;;;;;14.10;99.90;;;;;;5139681;27;19907;-65
2023/03/13 10:02:32;;;;;;;;;;;13.90;99.90;;;;;;5139546;27;20385;-65
2023/03/13 10:05:04;;;;;;;;;;;13.80;99.90;;;;;;5139605;27;19911;-65
2023/03/13 10:07:30;;;;;;;;;;;13.70;99.90;;;;;;5139517;27;19907;-65
2023/03/13 10:09:55;;;;;;;;;;;13.60;99.90;;;;;;5139753;27;19921;-65
2023/03/13 10:12:27;;;;;;;;;;;13.80;99.90;;;;;;5139441;27;19929;-65
2023/03/13 10:14:59;;;;;;;;;;;14.00;99.90;;;;;;5139425;27;19908;-65
2023/03/13 10:17:38;;;;;;;;;;;14.10;99.90;;;;;;5139117;27;19952;-65
2023/03/13 10:20:13;;;;;;;;;;;14.10;99.90;;;;;;5139538;27;19907;-65
2023/03/13 10:22:40;;;;;;;;;;;14.10;99.90;;;;;;5139028;27;19912;-66
2023/03/13 10:25:10;;;;;;;;;;;14.30;99.90;;;;;;5139418;27;19973;-65
2023/03/13 10:27:47;;;;;;;;;;;14.10;99.90;;;;;;5138228;27;21423;-65
2023/03/13 10:30:19;;;;;;;;;;;14.20;99.90;;;;;;5139364;27;19953;-65
2023/03/13 10:32:45;;;;;;;;;;;13.90;99.90;;;;;;5139606;27;19946;-65
2023/03/13 10:35:19;;;;;;;;;;;14.00;99.90;;;;;;5139102;27;19915;-65
2023/03/13 10:37:45;;;;;;;;;;;13.90;99.90;;;;;;5139006;27;19912;-65
2023/03/13 10:40:23;;;;;;;;;;;13.90;99.90;;;;;;5139355;27;20385;-66
2023/03/13 10:42:50;;;;;;;;;;;13.80;99.90;;;;;;5139015;27;19907;-65
2023/03/13 10:45:17;;;;;;;;;;;13.90;99.90;;;;;;5139179;27;19934;-65
2023/03/13 10:47:43;;;;;;;;;;;13.80;99.90;;;;;;5139115;27;19907;-65
2023/03/13 10:50:20;;;;;;;;;;;13.70;99.90;;;;;;5139133;28;19907;-65
2023/03/13 10:52:47;;;;;;;;;;;13.90;99.90;;;;;;5138863;28;20254;-65
2023/03/13 10:55:15;;;;;;;;;;;14.00;99.90;;;;;;5139311;28;19907;-65
2023/03/13 10:57:43;;;;;;;;;;;14.30;99.90;;;;;;5139035;28;19913;-65
2023/03/13 11:00:27;;;;;;;;;;;14.80;99.90;;;;;;5138731;28;20374;-65
2023/03/13 11:02:53;;;;;;;;;;;15.50;99.90;;;;;;5138989;28;19914;-65
2023/03/13 11:05:27;;;;;;;;;;;15.40;99.90;;;;;;5138773;28;20014;-65
2023/03/13 11:07:53;;;;;;;;;;;15.30;99.90;;;;;;5138967;28;19954;-65
2023/03/13 11:10:28;;;;;;;;;;;15.10;99.90;;;;;;5141899;27;19908;-65
2023/03/13 11:12:55;;;;;;;;;;;14.90;99.90;;;;;;5142868;27;19907;-65
2023/03/13 11:15:29;;;;;;;;;;;14.50;99.90;;;;;;5143123;27;19908;-65
2023/03/13 11:18:11;;;;;;;;;;;14.20;99.90;;;;;;5142529;27;20346;-65
2023/03/13 11:20:42;;;;;;;;;;;14.00;99.90;;;;;;5142539;27;20018;-65
2023/03/13 11:23:10;;;;;;;;;;;14.10;99.90;;;;;;5142545;27;20282;-65
2023/03/13 11:25:36;;;;;;;;;;;14.00;99.90;;;;;;5142640;27;19916;-65
2023/03/13 11:28:19;;;;;;;;;;;14.00;99.90;;;;;;5142614;27;19955;-65
2023/03/13 11:30:53;;;;;;;;;;;14.10;99.90;;;;;;5142337;27;20278;-65
2023/03/13 11:33:33;;;;;;;;;;;14.10;99.90;;;;;;5142876;27;19908;-65
2023/03/13 11:36:06;;;;;;;;;;;14.20;99.90;;;;;;5142756;27;19908;-65
2023/03/13 11:38:35;;;;;;;;;;;14.30;99.90;;;;;;5142369;27;19911;-65
2023/03/13 11:41:05;;;;;;;;;;;14.40;99.90;;;;;;5142816;27;19907;-64
2023/03/13 11:43:38;;;;;;;;;;;14.20;99.90;;;;;;5142337;27;19914;-65
2023/03/13 11:46:11;;;;;;;;;;;14.10;99.90;;;;;;5142382;27;19960;-64
2023/03/13 11:48:49;;;;;;;;;;;14.10;99.90;;;;;;5142465;27;20344;-64
2023/03/13 11:51:19;;;;;;;;;;;14.00;99.90;;;;;;5142203;27;19915;-64
2023/03/13 11:54:03;;;;;;;;;;;13.90;99.90;;;;;;5142316;27;19911;-64
2023/03/13 11:56:51;;;;;;;;;;;13.90;99.90;;;;;;5142191;27;19908;-64
2023/03/13 11:59:28;;;;;;;;;;;14.00;99.90;;;;;;5141764;27;19907;-64
2023/03/13 12:01:58;;;;;;;;;;;14.20;99.90;;;;;;5141961;27;20371;-64
2023/03/13 12:04:40;;;;;;;;;;;14.40;99.90;;;;;;5142012;27;19961;-64
2023/03/13 12:07:05;;;;;;;;;;;14.40;99.90;;;;;;5142051;27;20300;-64
2023/03/13 12:09:42;;;;;;;;;;;14.60;99.90;;;;;;5141802;27;20048;-64
2023/03/13 12:12:13;;;;;;;;;;;14.50;99.90;;;;;;5142243;27;19908;-64
2023/03/13 12:14:43;;;;;;;;;;;14.80;99.90;;;;;;5141962;27;19908;-64
2023/03/13 12:17:31;;;;;;;;;;;15.10;99.90;;;;;;5141990;27;19907;-64
2023/03/13 12:20:19;;;;;;;;;;;15.50;99.90;;;;;;5141037;27;19956;-64
2023/03/13 12:23:17;;;;;;;;;;;16.10;99.90;;;;;;5141644;27;19911;-64
2023/03/13 12:26:05;;;;;;;;;;;16.40;99.90;;;;;;5084982;27;19912;-64
2023/03/13 12:28:36;;;;;;;;;;;16.30;99.90;;;;;;5141879;27;19960;-64
2023/03/13 12:31:10;;;;;;;;;;;16.00;99.90;;;;;;5141206;27;19941;-64
2023/03/13 12:33:46;;;;;;;;;;;15.80;99.90;;;;;;5142179;27;19998;-64
2023/03/13 12:36:15;;;;;;;;;;;15.90;99.90;;;;;;5141078;27;19917;-64
2023/03/13 12:38:48;;;;;;;;;;;15.90;99.90;;;;;;5141231;27;19908;-64
2023/03/13 12:41:20;;;;;;;;;;;16.10;99.90;;;;;;5141687;27;20235;-64
2023/03/13 12:43:47;;;;;;;;;;;16.70;99.90;;;;;;5141425;27;19958;-64
2023/03/13 12:46:31;;;;;;;;;;;17.10;99.90;;;;;;5141057;27;19918;-64
2023/03/13 12:49:09;;;;;;;;;;;16.70;99.90;;;;;;5141327;27;19907;-64
2023/03/13 12:51:56;;;;;;;;;;;16.60;99.90;;;;;;5141028;27;19907;-64
2023/03/13 12:54:25;;;;;;;;;;;16.80;99.90;;;;;;5141133;27;19998;-64
2023/03/13 12:56:50;;;;;;;;;;;16.50;99.90;;;;;;5141188;27;19907;-64
2023/03/13 12:59:16;;;;;;;;;;;16.30;99.90;;;;;;5140916;27;19914;-64
2023/03/13 13:01:44;;;;;;;;;;;16.00;99.90;;;;;;5141051;27;19955;-64
2023/03/13 13:04:14;;;;;;;;;;;15.60;99.90;;;;;;5140467;27;19908;-64
2023/03/13 13:06:50;;;;;;;;;;;15.30;99.90;;;;;;5141011;27;19957;-64
2023/03/13 13:09:26;;;;;;;;;;;15.00;99.90;;;;;;5141001;27;19908;-64
2023/03/13 13:11:54;;;;;;;;;;;14.70;99.90;;;;;;5140811;27;19907;-64
2023/03/13 13:14:19;;;;;;;;;;;14.60;99.90;;;;;;5140640;27;19907;-64
2023/03/13 13:16:50;;;;;;;;;;;14.50;99.90;;;;;;5140749;27;20287;-64
2023/03/13 13:19:22;;;;;;;;;;;14.40;99.90;;;;;;5140326;27;19919;-64
2023/03/13 13:22:06;;;;;;;;;;;14.20;99.90;;;;;;5140471;27;20361;-64
2023/03/13 13:24:38;;;;;;;;;;;13.90;99.90;;;;;;5139793;27;19926;-64
2023/03/13 13:27:24;;;;;;;;;;;13.90;99.90;;;;;;5140551;27;19966;-64
2023/03/13 13:29:52;;;;;;;;;;;13.40;99.90;;;;;;5140039;27;19907;-65
2023/03/13 13:32:27;;;;;;;;;;;13.00;99.90;;;;;;5139714;27;20401;-66
2023/03/13 13:34:54;;;;;;;;;;;12.80;99.90;;;;;;5140057;27;19908;-65
2023/03/13 13:37:20;;;;;;;;;;;12.50;99.90;;;;;;5139759;27;19929;-65
2023/03/13 13:39:48;;;;;;;;;;;12.60;99.90;;;;;;5139851;27;20278;-65
2023/03/13 13:42:29;;;;;;;;;;;12.50;99.90;;;;;;5139978;27;19962;-65
2023/03/13 13:45:02;;;;;;;;;;;12.50;99.90;;;;;;5139817;27;19936;-68
2023/03/13 13:47:29;;;;;;;;;;;12.40;99.90;;;;;;5139830;27;20380;-65
2023/03/13 13:50:01;;;;;;;;;;;12.10;99.90;;;;;;5140014;27;20059;-67
2023/03/13 13:52:33;;;;;;;;;;;11.80;99.90;;;;;;5139903;27;19914;-66
2023/03/13 13:54:59;;;;;;;;;;;11.40;99.90;;;;;;5139766;27;19908;-67
2023/03/13 13:57:28;;;;;;;;;;;11.20;99.90;;;;;;5139829;27;19947;-67
2023/03/13 14:00:05;;;;;;;;;;;11.10;99.90;;;;;;5139465;27;19993;-67
2023/03/13 14:02:32;;;;;;;;;;;11.20;99.90;;;;;;5139707;27;19907;-67
2023/03/13 14:04:58;;;;;;;;;;;11.60;99.90;;;;;;5139704;27;20407;-67
2023/03/13 14:07:36;;;;;;;;;;;12.50;99.90;;;;;;5139381;27;19911;-68
2023/03/13 14:10:20;;;;;;;;;;;12.80;99.90;;;;;;5139409;27;19908;-67
2023/03/13 14:12:50;;;;;;;;;;;13.30;99.90;;;;;;5139536;27;19914;-67
2023/03/13 14:15:26;;;;;;;;;;;13.80;99.90;;;;;;5139797;27;19951;-67
2023/03/13 14:17:53;;;;;;;;;;;14.20;99.90;;;;;;5139496;27;19915;-67
2023/03/13 14:20:22;;;;;;;;;;;14.30;99.90;;;;;;5139337;27;19931;-67
2023/03/13 14:22:49;;;;;;;;;;;14.50;99.90;;;;;;5139040;27;19914;-66